sensor_id;sensor_type;location;lat;lon;timestamp;temperature;humidity
15105;DHT22;7653;48.994;9.212;2023-02-28T00:00:04;-1.30;30.80
15105;DHT22;7653;48.994;9.212;2023-02-28T00:02:40;-1.30;31.10
15105;DHT22;7653;48.994;9.212;2023-02-28T00:05:08;-1.30;31.20
15105;DHT22;7653;48.994;9.212;2023-02-28T00:07:35;-1.30;31.30
15105;DHT22;7653;48.994;9.212;2023-02-28T00:10:00;-1.20;31.10
15105;DHT22;7653;48.994;9.212;2023-02-28T00:12:27;-1.20;31.30
15105;DHT22;7653;48.994;9.212;2023-02-28T00:14:53;-1.20;31.50
15105;DHT22;7653;48.994;9.212;2023-02-28T00:17:19;-1.30;32.10
15105;DHT22;7653;48.994;9.212;2023-02-28T00:19:50;-1.20;32.30
15105;DHT22;7653;48.994;9.212;2023-02-28T00:22:18;-1.20;32.20
15105;DHT22;7653;48.994;9.212;2023-02-28T00:24:44;-1.20;32.20
15105;DHT22;7653;48.994;9.212;2023-02-28T00:27:10;-1.20;32.10
15105;DHT22;7653;48.994;9.212;2023-02-28T00:29:36;-1.20;32.20
15105;DHT22;7653;48.994;9.212;2023-02-28T00:32:02;-1.20;32.20
15105;DHT22;7653;48.994;9.212;2023-02-28T00:34:28;-1.20;32.00
15105;DHT22;7653;48.994;9.212;2023-02-28T00:36:54;-1.20;32.20
15105;DHT22;7653;48.994;9.212;2023-02-28T00:39:19;-1.20;32.20
15105;DHT22;7653;48.994;9.212;2023-02-28T00:41:45;-1.20;32.30
15105;DHT22;7653;48.994;9.212;2023-02-28T00:44:11;-1.10;32.40
15105;DHT22;7653;48.994;9.212;2023-02-28T00:46:36;-1.20;32.30
15105;DHT22;7653;48.994;9.212;2023-02-28T00:49:02;-1.20;32.20
15105;DHT22;7653;48.994;9.212;2023-02-28T00:51:28;-1.20;32.30
15105;DHT22;7653;48.994;9.212;2023-02-28T00:53:54;-1.30;32.10
15105;DHT22;7653;48.994;9.212;2023-02-28T00:56:21;-1.30;32.60
15105;DHT22;7653;48.994;9.212;2023-02-28T00:58:46;-1.30;32.90
15105;DHT22;7653;48.994;9.212;2023-02-28T01:01:12;-1.40;33.60
15105;DHT22;7653;48.994;9.212;2023-02-28T01:03:38;-1.40;33.70
15105;DHT22;7653;48.994;9.212;2023-02-28T01:06:04;-1.40;33.70
15105;DHT22;7653;48.994;9.212;2023-02-28T01:08:30;-1.30;33.50
15105;DHT22;7653;48.994;9.212;2023-02-28T01:10:56;-1.30;33.20
15105;DHT22;7653;48.994;9.212;2023-02-28T01:13:21;-1.30;33.00
15105;DHT22;7653;48.994;9.212;2023-02-28T01:15:50;-1.30;33.40
15105;DHT22;7653;48.994;9.212;2023-02-28T01:18:17;-1.30;33.60
15105;DHT22;7653;48.994;9.212;2023-02-28T01:20:43;-1.40;33.60
15105;DHT22;7653;48.994;9.212;2023-02-28T01:23:09;-1.40;33.90
15105;DHT22;7653;48.994;9.212;2023-02-28T01:25:36;-1.40;34.20
15105;DHT22;7653;48.994;9.212;2023-02-28T01:28:01;-1.50;34.70
15105;DHT22;7653;48.994;9.212;2023-02-28T01:30:27;-1.50;35.30
15105;DHT22;7653;48.994;9.212;2023-02-28T01:32:53;-1.60;35.80
15105;DHT22;7653;48.994;9.212;2023-02-28T01:35:19;-1.60;36.50
15105;DHT22;7653;48.994;9.212;2023-02-28T01:37:44;-1.60;36.80
15105;DHT22;7653;48.994;9.212;2023-02-28T01:40:11;-1.60;37.20
15105;DHT22;7653;48.994;9.212;2023-02-28T01:42:37;-1.60;37.80
15105;DHT22;7653;48.994;9.212;2023-02-28T01:47:48;-1.60;38.10
15105;DHT22;7653;48.994;9.212;2023-02-28T01:50:18;-1.60;38.70
15105;DHT22;7653;48.994;9.212;2023-02-28T01:52:46;-1.60;38.80
15105;DHT22;7653;48.994;9.212;2023-02-28T01:55:12;-1.60;39.10
15105;DHT22;7653;48.994;9.212;2023-02-28T01:57:43;-1.60;39.60
15105;DHT22;7653;48.994;9.212;2023-02-28T02:00:12;-1.60;39.40
15105;DHT22;7653;48.994;9.212;2023-02-28T02:02:42;-1.60;39.60
15105;DHT22;7653;48.994;9.212;2023-02-28T02:05:15;-1.60;39.90
15105;DHT22;7653;48.994;9.212;2023-02-28T02:07:43;-1.60;40.30
15105;DHT22;7653;48.994;9.212;2023-02-28T02:20:56;-1.70;41.60
15105;DHT22;7653;48.994;9.212;2023-02-28T02:28:57;-1.70;41.60
15105;DHT22;7653;48.994;9.212;2023-02-28T02:36:42;-1.70;41.60
15105;DHT22;7653;48.994;9.212;2023-02-28T02:39:17;-1.70;41.60
15105;DHT22;7653;48.994;9.212;2023-02-28T02:41:53;-1.70;41.60
15105;DHT22;7653;48.994;9.212;2023-02-28T02:44:49;-1.70;41.60
15105;DHT22;7653;48.994;9.212;2023-02-28T02:47:20;-1.60;41.70
15105;DHT22;7653;48.994;9.212;2023-02-28T02:49:52;-1.70;41.60
15105;DHT22;7653;48.994;9.212;2023-02-28T02:52:23;-1.70;41.60
15105;DHT22;7653;48.994;9.212;2023-02-28T02:54:53;-1.70;42.00
15105;DHT22;7653;48.994;9.212;2023-02-28T02:57:25;-1.60;41.70
15105;DHT22;7653;48.994;9.212;2023-02-28T02:59:53;-1.60;42.10
15105;DHT22;7653;48.994;9.212;2023-02-28T03:02:21;-1.60;42.00
15105;DHT22;7653;48.994;9.212;2023-02-28T03:04:58;-1.60;41.70
15105;DHT22;7653;48.994;9.212;2023-02-28T03:07:28;-1.60;42.00
15105;DHT22;7653;48.994;9.212;2023-02-28T03:09:55;-1.50;41.80
15105;DHT22;7653;48.994;9.212;2023-02-28T03:12:25;-1.50;41.80
15105;DHT22;7653;48.994;9.212;2023-02-28T03:15:14;-1.50;41.80
15105;DHT22;7653;48.994;9.212;2023-02-28T03:17:50;-1.50;41.70
15105;DHT22;7653;48.994;9.212;2023-02-28T03:20:44;-1.50;41.70
15105;DHT22;7653;48.994;9.212;2023-02-28T03:23:18;-1.50;41.80
15105;DHT22;7653;48.994;9.212;2023-02-28T03:26:41;-1.50;41.80
15105;DHT22;7653;48.994;9.212;2023-02-28T03:29:24;-1.50;41.70
15105;DHT22;7653;48.994;9.212;2023-02-28T03:31:58;-1.40;41.80
15105;DHT22;7653;48.994;9.212;2023-02-28T03:34:33;-1.30;41.60
15105;DHT22;7653;48.994;9.212;2023-02-28T03:37:04;-1.30;41.20
15105;DHT22;7653;48.994;9.212;2023-02-28T03:39:41;-1.30;40.90
15105;DHT22;7653;48.994;9.212;2023-02-28T03:42:28;-1.30;40.60
15105;DHT22;7653;48.994;9.212;2023-02-28T03:45:04;-1.30;40.70
15105;DHT22;7653;48.994;9.212;2023-02-28T03:52:36;-1.20;40.40
15105;DHT22;7653;48.994;9.212;2023-02-28T03:55:08;-1.20;40.20
15105;DHT22;7653;48.994;9.212;2023-02-28T03:58:15;-1.20;40.20
15105;DHT22;7653;48.994;9.212;2023-02-28T04:00:50;-1.20;40.20
15105;DHT22;7653;48.994;9.212;2023-02-28T04:03:18;-1.20;40.20
15105;DHT22;7653;48.994;9.212;2023-02-28T04:05:52;-1.20;40.30
15105;DHT22;7653;48.994;9.212;2023-02-28T04:08:19;-1.20;40.60
15105;DHT22;7653;48.994;9.212;2023-02-28T04:10:50;-1.20;40.50
15105;DHT22;7653;48.994;9.212;2023-02-28T04:13:16;-1.20;40.40
15105;DHT22;7653;48.994;9.212;2023-02-28T04:15:42;-1.10;40.10
15105;DHT22;7653;48.994;9.212;2023-02-28T04:18:08;-1.10;39.50
15105;DHT22;7653;48.994;9.212;2023-02-28T04:20:33;-1.10;39.50
15105;DHT22;7653;48.994;9.212;2023-02-28T04:22:59;-1.10;39.10
15105;DHT22;7653;48.994;9.212;2023-02-28T04:25:25;-1.00;38.70
15105;DHT22;7653;48.994;9.212;2023-02-28T04:27:50;-1.00;38.90
15105;DHT22;7653;48.994;9.212;2023-02-28T04:30:16;-0.90;38.10
15105;DHT22;7653;48.994;9.212;2023-02-28T04:32:42;-0.90;38.40
15105;DHT22;7653;48.994;9.212;2023-02-28T04:35:08;-0.90;38.60
15105;DHT22;7653;48.994;9.212;2023-02-28T04:37:33;-0.90;38.80
15105;DHT22;7653;48.994;9.212;2023-02-28T04:40:01;-0.90;38.30
15105;DHT22;7653;48.994;9.212;2023-02-28T04:42:26;-0.90;38.00
15105;DHT22;7653;48.994;9.212;2023-02-28T04:44:52;-0.90;38.30
15105;DHT22;7653;48.994;9.212;2023-02-28T04:47:18;-0.90;38.40
15105;DHT22;7653;48.994;9.212;2023-02-28T04:49:43;-0.90;38.20
15105;DHT22;7653;48.994;9.212;2023-02-28T04:52:09;-0.80;37.90
15105;DHT22;7653;48.994;9.212;2023-02-28T04:54:35;-0.80;37.50
15105;DHT22;7653;48.994;9.212;2023-02-28T04:57:01;-0.70;37.40
15105;DHT22;7653;48.994;9.212;2023-02-28T04:59:27;-0.70;37.00
15105;DHT22;7653;48.994;9.212;2023-02-28T05:01:52;-0.70;38.20
15105;DHT22;7653;48.994;9.212;2023-02-28T05:04:18;-0.70;37.70
15105;DHT22;7653;48.994;9.212;2023-02-28T05:06:44;-0.70;37.40
15105;DHT22;7653;48.994;9.212;2023-02-28T05:09:10;-0.70;36.80
15105;DHT22;7653;48.994;9.212;2023-02-28T05:11:39;-0.70;36.50
15105;DHT22;7653;48.994;9.212;2023-02-28T05:14:08;-0.70;36.60
15105;DHT22;7653;48.994;9.212;2023-02-28T05:16:34;-0.70;35.50
15105;DHT22;7653;48.994;9.212;2023-02-28T05:19:00;-0.60;36.10
15105;DHT22;7653;48.994;9.212;2023-02-28T05:21:35;-0.60;35.40
15105;DHT22;7653;48.994;9.212;2023-02-28T05:24:11;-0.60;35.40
15105;DHT22;7653;48.994;9.212;2023-02-28T05:26:39;-0.60;35.50
15105;DHT22;7653;48.994;9.212;2023-02-28T05:29:06;-0.60;35.00
15105;DHT22;7653;48.994;9.212;2023-02-28T05:31:32;-0.60;36.00
15105;DHT22;7653;48.994;9.212;2023-02-28T05:33:58;-0.60;35.80
15105;DHT22;7653;48.994;9.212;2023-02-28T05:36:24;-0.60;35.20
15105;DHT22;7653;48.994;9.212;2023-02-28T05:38:50;-0.60;34.60
15105;DHT22;7653;48.994;9.212;2023-02-28T05:41:17;-0.60;34.40
15105;DHT22;7653;48.994;9.212;2023-02-28T05:43:44;-0.60;35.20
15105;DHT22;7653;48.994;9.212;2023-02-28T05:46:12;-0.60;35.00
15105;DHT22;7653;48.994;9.212;2023-02-28T05:48:39;-0.60;34.80
15105;DHT22;7653;48.994;9.212;2023-02-28T05:51:06;-0.60;35.10
15105;DHT22;7653;48.994;9.212;2023-02-28T05:53:32;-0.60;34.90
15105;DHT22;7653;48.994;9.212;2023-02-28T05:55:59;-0.50;34.90
15105;DHT22;7653;48.994;9.212;2023-02-28T05:58:25;-0.50;34.80
15105;DHT22;7653;48.994;9.212;2023-02-28T06:00:54;-0.60;35.50
15105;DHT22;7653;48.994;9.212;2023-02-28T06:03:20;-0.60;35.00
15105;DHT22;7653;48.994;9.212;2023-02-28T06:05:46;-0.60;35.20
15105;DHT22;7653;48.994;9.212;2023-02-28T06:08:12;-0.50;34.70
15105;DHT22;7653;48.994;9.212;2023-02-28T06:10:38;-0.50;34.80
15105;DHT22;7653;48.994;9.212;2023-02-28T06:13:04;-0.60;35.00
15105;DHT22;7653;48.994;9.212;2023-02-28T06:15:30;-0.50;34.90
15105;DHT22;7653;48.994;9.212;2023-02-28T06:17:57;-0.50;35.00
15105;DHT22;7653;48.994;9.212;2023-02-28T06:20:23;-0.50;34.90
15105;DHT22;7653;48.994;9.212;2023-02-28T06:22:49;-0.50;34.80
15105;DHT22;7653;48.994;9.212;2023-02-28T06:25:19;-0.50;35.00
15105;DHT22;7653;48.994;9.212;2023-02-28T06:27:45;-0.50;35.00
15105;DHT22;7653;48.994;9.212;2023-02-28T06:30:11;-0.50;35.20
15105;DHT22;7653;48.994;9.212;2023-02-28T06:32:37;-0.60;35.00
15105;DHT22;7653;48.994;9.212;2023-02-28T06:35:03;-0.50;34.60
15105;DHT22;7653;48.994;9.212;2023-02-28T06:37:31;-0.40;35.30
15105;DHT22;7653;48.994;9.212;2023-02-28T06:39:56;-0.40;34.90
15105;DHT22;7653;48.994;9.212;2023-02-28T06:42:23;-0.50;34.20
15105;DHT22;7653;48.994;9.212;2023-02-28T06:44:57;-0.50;34.40
15105;DHT22;7653;48.994;9.212;2023-02-28T06:47:23;-0.40;34.60
15105;DHT22;7653;48.994;9.212;2023-02-28T06:49:49;-0.40;34.20
15105;DHT22;7653;48.994;9.212;2023-02-28T06:52:15;-0.50;33.90
15105;DHT22;7653;48.994;9.212;2023-02-28T06:54:41;-0.40;34.40
15105;DHT22;7653;48.994;9.212;2023-02-28T06:57:07;-0.40;34.10
15105;DHT22;7653;48.994;9.212;2023-02-28T06:59:36;-0.40;33.40
15105;DHT22;7653;48.994;9.212;2023-02-28T07:02:02;-0.40;34.00
15105;DHT22;7653;48.994;9.212;2023-02-28T07:04:28;-0.40;34.20
15105;DHT22;7653;48.994;9.212;2023-02-28T07:06:54;-0.30;33.60
15105;DHT22;7653;48.994;9.212;2023-02-28T07:09:22;-0.40;34.30
15105;DHT22;7653;48.994;9.212;2023-02-28T07:11:48;-0.30;33.10
15105;DHT22;7653;48.994;9.212;2023-02-28T07:14:14;-0.30;33.20
15105;DHT22;7653;48.994;9.212;2023-02-28T07:16:39;-0.40;33.70
15105;DHT22;7653;48.994;9.212;2023-02-28T07:19:05;-0.40;34.70
15105;DHT22;7653;48.994;9.212;2023-02-28T07:21:31;-0.20;34.30
15105;DHT22;7653;48.994;9.212;2023-02-28T07:23:56;-0.20;33.10
15105;DHT22;7653;48.994;9.212;2023-02-28T07:26:22;-0.20;33.10
15105;DHT22;7653;48.994;9.212;2023-02-28T07:28:48;-0.20;34.10
15105;DHT22;7653;48.994;9.212;2023-02-28T07:31:15;-0.20;33.70
15105;DHT22;7653;48.994;9.212;2023-02-28T07:33:42;-0.20;33.10
15105;DHT22;7653;48.994;9.212;2023-02-28T07:36:10;-0.20;33.10
15105;DHT22;7653;48.994;9.212;2023-02-28T07:38:41;-0.10;33.10
15105;DHT22;7653;48.994;9.212;2023-02-28T07:41:08;0.00;33.20
15105;DHT22;7653;48.994;9.212;2023-02-28T07:43:34;-0.10;33.20
15105;DHT22;7653;48.994;9.212;2023-02-28T07:46:05;-0.10;33.10
15105;DHT22;7653;48.994;9.212;2023-02-28T07:48:31;-0.10;33.10
15105;DHT22;7653;48.994;9.212;2023-02-28T07:50:58;0.00;33.20
15105;DHT22;7653;48.994;9.212;2023-02-28T07:53:25;-0.10;33.20
15105;DHT22;7653;48.994;9.212;2023-02-28T07:55:55;0.00;33.20
15105;DHT22;7653;48.994;9.212;2023-02-28T07:58:21;0.00;33.20
15105;DHT22;7653;48.994;9.212;2023-02-28T08:00:46;0.10;32.70
15105;DHT22;7653;48.994;9.212;2023-02-28T08:03:12;0.10;33.40
15105;DHT22;7653;48.994;9.212;2023-02-28T08:05:41;0.10;33.30
15105;DHT22;7653;48.994;9.212;2023-02-28T08:08:07;0.20;32.10
15105;DHT22;7653;48.994;9.212;2023-02-28T08:10:33;0.20;31.80
15105;DHT22;7653;48.994;9.212;2023-02-28T08:12:59;0.20;32.40
15105;DHT22;7653;48.994;9.212;2023-02-28T08:15:25;0.40;31.60
15105;DHT22;7653;48.994;9.212;2023-02-28T08:17:51;0.30;31.40
15105;DHT22;7653;48.994;9.212;2023-02-28T08:20:16;0.30;31.60
15105;DHT22;7653;48.994;9.212;2023-02-28T08:22:42;0.40;31.60
15105;DHT22;7653;48.994;9.212;2023-02-28T08:25:08;0.40;31.40
15105;DHT22;7653;48.994;9.212;2023-02-28T08:27:35;0.50;30.40
15105;DHT22;7653;48.994;9.212;2023-02-28T08:30:00;0.60;30.30
15105;DHT22;7653;48.994;9.212;2023-02-28T08:32:26;0.80;30.00
15105;DHT22;7653;48.994;9.212;2023-02-28T08:34:52;0.90;29.30
15105;DHT22;7653;48.994;9.212;2023-02-28T08:37:17;0.90;28.50
15105;DHT22;7653;48.994;9.212;2023-02-28T08:39:43;1.10;28.60
15105;DHT22;7653;48.994;9.212;2023-02-28T08:42:09;1.00;28.20
15105;DHT22;7653;48.994;9.212;2023-02-28T08:44:34;1.10;28.80
15105;DHT22;7653;48.994;9.212;2023-02-28T08:47:00;1.20;28.10
15105;DHT22;7653;48.994;9.212;2023-02-28T08:49:26;1.40;28.40
15105;DHT22;7653;48.994;9.212;2023-02-28T08:51:51;1.40;26.70
15105;DHT22;7653;48.994;9.212;2023-02-28T08:54:17;1.30;26.20
15105;DHT22;7653;48.994;9.212;2023-02-28T08:56:45;1.20;26.90
15105;DHT22;7653;48.994;9.212;2023-02-28T08:59:12;1.10;26.80
15105;DHT22;7653;48.994;9.212;2023-02-28T09:01:38;1.10;26.70
15105;DHT22;7653;48.994;9.212;2023-02-28T09:04:03;1.30;26.60
15105;DHT22;7653;48.994;9.212;2023-02-28T09:06:29;1.20;26.60
15105;DHT22;7653;48.994;9.212;2023-02-28T09:08:58;1.40;26.50
15105;DHT22;7653;48.994;9.212;2023-02-28T09:11:28;1.40;25.80
15105;DHT22;7653;48.994;9.212;2023-02-28T09:13:54;1.50;25.80
15105;DHT22;7653;48.994;9.212;2023-02-28T09:16:21;1.60;25.90
15105;DHT22;7653;48.994;9.212;2023-02-28T09:18:47;1.50;25.80
15105;DHT22;7653;48.994;9.212;2023-02-28T09:21:15;1.60;25.30
15105;DHT22;7653;48.994;9.212;2023-02-28T09:23:45;1.50;25.40
15105;DHT22;7653;48.994;9.212;2023-02-28T09:26:25;1.70;24.90
15105;DHT22;7653;48.994;9.212;2023-02-28T09:28:52;1.90;24.50
15105;DHT22;7653;48.994;9.212;2023-02-28T09:31:22;1.80;24.00
15105;DHT22;7653;48.994;9.212;2023-02-28T09:33:49;1.80;24.70
15105;DHT22;7653;48.994;9.212;2023-02-28T09:36:15;2.00;24.20
15105;DHT22;7653;48.994;9.212;2023-02-28T09:38:41;2.00;23.70
15105;DHT22;7653;48.994;9.212;2023-02-28T09:41:20;2.10;24.20
15105;DHT22;7653;48.994;9.212;2023-02-28T09:43:50;2.20;23.60
15105;DHT22;7653;48.994;9.212;2023-02-28T09:46:31;2.30;23.50
15105;DHT22;7653;48.994;9.212;2023-02-28T09:48:59;2.20;23.00
15105;DHT22;7653;48.994;9.212;2023-02-28T09:51:56;2.30;22.90
15105;DHT22;7653;48.994;9.212;2023-02-28T09:54:24;2.50;22.50
15105;DHT22;7653;48.994;9.212;2023-02-28T09:56:53;2.40;22.40
15105;DHT22;7653;48.994;9.212;2023-02-28T09:59:32;2.50;22.40
15105;DHT22;7653;48.994;9.212;2023-02-28T10:05:11;2.60;22.60
15105;DHT22;7653;48.994;9.212;2023-02-28T10:10:42;2.80;21.80
15105;DHT22;7653;48.994;9.212;2023-02-28T10:13:36;2.50;22.40
15105;DHT22;7653;48.994;9.212;2023-02-28T10:16:24;2.60;21.90
15105;DHT22;7653;48.994;9.212;2023-02-28T10:19:05;2.70;21.80
15105;DHT22;7653;48.994;9.212;2023-02-28T10:21:48;2.80;21.40
15105;DHT22;7653;48.994;9.212;2023-02-28T10:26:47;2.90;21.30
15105;DHT22;7653;48.994;9.212;2023-02-28T10:29:13;3.10;20.40
15105;DHT22;7653;48.994;9.212;2023-02-28T10:31:39;3.10;20.50
15105;DHT22;7653;48.994;9.212;2023-02-28T10:34:05;2.80;19.80
15105;DHT22;7653;48.994;9.212;2023-02-28T10:36:32;2.90;20.20
15105;DHT22;7653;48.994;9.212;2023-02-28T10:38:57;3.00;20.20
15105;DHT22;7653;48.994;9.212;2023-02-28T10:41:30;3.10;19.80
15105;DHT22;7653;48.994;9.212;2023-02-28T10:44:32;3.10;19.90
15105;DHT22;7653;48.994;9.212;2023-02-28T10:46:58;3.00;19.90
15105;DHT22;7653;48.994;9.212;2023-02-28T10:49:29;3.50;19.80
15105;DHT22;7653;48.994;9.212;2023-02-28T10:51:57;3.80;18.60
15105;DHT22;7653;48.994;9.212;2023-02-28T10:54:35;3.90;17.90
15105;DHT22;7653;48.994;9.212;2023-02-28T10:57:23;3.80;17.80
15105;DHT22;7653;48.994;9.212;2023-02-28T10:59:53;3.80;18.00
15105;DHT22;7653;48.994;9.212;2023-02-28T11:04:56;3.70;18.60
15105;DHT22;7653;48.994;9.212;2023-02-28T11:07:24;4.00;17.80
15105;DHT22;7653;48.994;9.212;2023-02-28T11:09:52;4.00;17.80
15105;DHT22;7653;48.994;9.212;2023-02-28T11:12:37;3.70;18.20
15105;DHT22;7653;48.994;9.212;2023-02-28T11:17:44;3.40;19.00
15105;DHT22;7653;48.994;9.212;2023-02-28T11:20:23;3.70;19.00
15105;DHT22;7653;48.994;9.212;2023-02-28T11:22:51;3.60;18.70
15105;DHT22;7653;48.994;9.212;2023-02-28T11:25:26;3.60;19.10
15105;DHT22;7653;48.994;9.212;2023-02-28T11:27:58;3.50;19.10
15105;DHT22;7653;48.994;9.212;2023-02-28T11:30:27;3.50;19.10
15105;DHT22;7653;48.994;9.212;2023-02-28T11:32:55;3.60;18.40
15105;DHT22;7653;48.994;9.212;2023-02-28T11:37:49;3.60;19.10
15105;DHT22;7653;48.994;9.212;2023-02-28T11:40:18;3.50;18.70
15105;DHT22;7653;48.994;9.212;2023-02-28T11:42:58;3.50;19.10
15105;DHT22;7653;48.994;9.212;2023-02-28T12:07:40;4.40;17.80
15105;DHT22;7653;48.994;9.212;2023-02-28T12:10:28;4.40;17.60
15105;DHT22;7653;48.994;9.212;2023-02-28T12:13:07;4.60;17.90
15105;DHT22;7653;48.994;9.212;2023-02-28T12:26:43;4.60;17.80
15105;DHT22;7653;48.994;9.212;2023-02-28T12:29:30;4.50;16.20
15105;DHT22;7653;48.994;9.212;2023-02-28T12:34:47;4.90;16.10
15105;DHT22;7653;48.994;9.212;2023-02-28T12:37:20;5.20;16.90
15105;DHT22;7653;48.994;9.212;2023-02-28T12:39:54;5.10;16.20
15105;DHT22;7653;48.994;9.212;2023-02-28T12:42:29;5.50;16.70
15105;DHT22;7653;48.994;9.212;2023-02-28T12:45:03;5.70;16.10
15105;DHT22;7653;48.994;9.212;2023-02-28T12:47:32;5.30;15.50
15105;DHT22;7653;48.994;9.212;2023-02-28T12:50:09;5.10;16.00
15105;DHT22;7653;48.994;9.212;2023-02-28T12:55:49;4.90;15.40
15105;DHT22;7653;48.994;9.212;2023-02-28T12:58:20;5.40;16.20
15105;DHT22;7653;48.994;9.212;2023-02-28T13:09:19;5.70;14.60
15105;DHT22;7653;48.994;9.212;2023-02-28T13:14:36;5.60;13.80
15105;DHT22;7653;48.994;9.212;2023-02-28T13:17:09;5.80;14.00
15105;DHT22;7653;48.994;9.212;2023-02-28T13:19:43;5.50;13.90
15105;DHT22;7653;48.994;9.212;2023-02-28T13:24:50;5.70;15.30
15105;DHT22;7653;48.994;9.212;2023-02-28T13:29:53;6.60;12.80
15105;DHT22;7653;48.994;9.212;2023-02-28T13:32:29;7.10;13.10
15105;DHT22;7653;48.994;9.212;2023-02-28T13:40:47;6.30;13.40
15105;DHT22;7653;48.994;9.212;2023-02-28T13:42:48;6.50;12.80
15105;DHT22;7653;48.994;9.212;2023-02-28T13:45:25;7.00;13.00
15105;DHT22;7653;48.994;9.212;2023-02-28T13:48:18;7.20;11.10
15105;DHT22;7653;48.994;9.212;2023-02-28T13:50:44;7.90;10.40
15105;DHT22;7653;48.994;9.212;2023-02-28T13:56:32;7.20;10.60
15105;DHT22;7653;48.994;9.212;2023-02-28T13:59:06;7.60;11.30
15105;DHT22;7653;48.994;9.212;2023-02-28T14:01:59;8.00;9.90
15105;DHT22;7653;48.994;9.212;2023-02-28T14:07:05;7.40;11.00
15105;DHT22;7653;48.994;9.212;2023-02-28T14:09:40;7.70;11.40
15105;DHT22;7653;48.994;9.212;2023-02-28T14:18:00;7.40;11.50
15105;DHT22;7653;48.994;9.212;2023-02-28T14:20:30;7.30;11.50
15105;DHT22;7653;48.994;9.212;2023-02-28T14:26:06;6.80;12.80
15105;DHT22;7653;48.994;9.212;2023-02-28T14:29:02;7.50;11.20
15105;DHT22;7653;48.994;9.212;2023-02-28T14:32:25;7.10;11.10
15105;DHT22;7653;48.994;9.212;2023-02-28T14:35:16;6.90;12.70
15105;DHT22;7653;48.994;9.212;2023-02-28T14:37:29;6.60;12.40
15105;DHT22;7653;48.994;9.212;2023-02-28T14:39:57;7.30;12.50
15105;DHT22;7653;48.994;9.212;2023-02-28T14:42:35;7.70;11.30
15105;DHT22;7653;48.994;9.212;2023-02-28T14:45:04;7.30;11.60
15105;DHT22;7653;48.994;9.212;2023-02-28T14:47:34;7.70;10.60
15105;DHT22;7653;48.994;9.212;2023-02-28T14:50:03;7.70;11.70
15105;DHT22;7653;48.994;9.212;2023-02-28T14:52:31;7.30;11.50
15105;DHT22;7653;48.994;9.212;2023-02-28T14:55:03;7.30;11.80
15105;DHT22;7653;48.994;9.212;2023-02-28T14:57:40;7.40;11.80
15105;DHT22;7653;48.994;9.212;2023-02-28T15:00:15;7.70;10.70
15105;DHT22;7653;48.994;9.212;2023-02-28T15:02:42;7.30;11.40
15105;DHT22;7653;48.994;9.212;2023-02-28T15:05:39;6.90;12.20
15105;DHT22;7653;48.994;9.212;2023-02-28T15:08:11;6.80;12.90
15105;DHT22;7653;48.994;9.212;2023-02-28T15:10:42;6.80;12.90
15105;DHT22;7653;48.994;9.212;2023-02-28T15:13:12;7.00;12.90
15105;DHT22;7653;48.994;9.212;2023-02-28T15:21:36;7.00;13.00
15105;DHT22;7653;48.994;9.212;2023-02-28T15:26:41;6.70;12.90
15105;DHT22;7653;48.994;9.212;2023-02-28T15:29:11;7.30;12.60
15105;DHT22;7653;48.994;9.212;2023-02-28T15:32:16;7.20;13.20
15105;DHT22;7653;48.994;9.212;2023-02-28T15:34:39;7.00;12.20
15105;DHT22;7653;48.994;9.212;2023-02-28T15:39:58;6.60;13.40
15105;DHT22;7653;48.994;9.212;2023-02-28T15:42:28;6.40;12.70
15105;DHT22;7653;48.994;9.212;2023-02-28T15:44:54;6.20;13.80
15105;DHT22;7653;48.994;9.212;2023-02-28T15:47:23;6.20;13.60
15105;DHT22;7653;48.994;9.212;2023-02-28T15:49:50;6.10;13.60
15105;DHT22;7653;48.994;9.212;2023-02-28T15:52:23;6.10;14.20
15105;DHT22;7653;48.994;9.212;2023-02-28T15:54:50;6.10;13.10
15105;DHT22;7653;48.994;9.212;2023-02-28T15:57:27;6.00;13.80
15105;DHT22;7653;48.994;9.212;2023-02-28T16:00:00;6.00;13.90
15105;DHT22;7653;48.994;9.212;2023-02-28T16:02:33;6.00;14.00
15105;DHT22;7653;48.994;9.212;2023-02-28T16:07:32;6.10;14.20
15105;DHT22;7653;48.994;9.212;2023-02-28T16:09:58;6.10;13.50
15105;DHT22;7653;48.994;9.212;2023-02-28T16:12:29;6.00;13.60
15105;DHT22;7653;48.994;9.212;2023-02-28T16:14:57;5.90;13.60
15105;DHT22;7653;48.994;9.212;2023-02-28T16:17:29;5.50;14.60
15105;DHT22;7653;48.994;9.212;2023-02-28T16:19:55;5.50;15.10
15105;DHT22;7653;48.994;9.212;2023-02-28T16:22:21;5.30;15.20
15105;DHT22;7653;48.994;9.212;2023-02-28T16:24:47;5.20;15.70
15105;DHT22;7653;48.994;9.212;2023-02-28T16:27:39;5.20;15.40
15105;DHT22;7653;48.994;9.212;2023-02-28T16:30:07;5.20;15.60
15105;DHT22;7653;48.994;9.212;2023-02-28T16:32:36;5.10;16.00
15105;DHT22;7653;48.994;9.212;2023-02-28T16:35:02;5.00;14.60
15105;DHT22;7653;48.994;9.212;2023-02-28T16:37:28;4.80;15.80
15105;DHT22;7653;48.994;9.212;2023-02-28T16:39:54;4.70;15.70
15105;DHT22;7653;48.994;9.212;2023-02-28T16:42:27;4.60;16.20
15105;DHT22;7653;48.994;9.212;2023-02-28T16:44:54;4.60;16.30
15105;DHT22;7653;48.994;9.212;2023-02-28T16:47:20;4.50;16.80
15105;DHT22;7653;48.994;9.212;2023-02-28T16:49:46;4.40;17.40
15105;DHT22;7653;48.994;9.212;2023-02-28T16:52:13;4.20;16.90
15105;DHT22;7653;48.994;9.212;2023-02-28T16:54:40;4.30;16.90
15105;DHT22;7653;48.994;9.212;2023-02-28T16:57:21;4.20;17.40
15105;DHT22;7653;48.994;9.212;2023-02-28T16:59:48;4.10;17.40
15105;DHT22;7653;48.994;9.212;2023-02-28T17:02:17;3.90;18.60
15105;DHT22;7653;48.994;9.212;2023-02-28T17:04:44;3.80;18.10
15105;DHT22;7653;48.994;9.212;2023-02-28T17:07:13;3.90;17.80
15105;DHT22;7653;48.994;9.212;2023-02-28T17:09:39;3.90;18.10
15105;DHT22;7653;48.994;9.212;2023-02-28T17:12:04;3.70;18.50
15105;DHT22;7653;48.994;9.212;2023-02-28T17:14:31;3.60;19.10
15105;DHT22;7653;48.994;9.212;2023-02-28T17:16:56;3.60;19.10
15105;DHT22;7653;48.994;9.212;2023-02-28T17:19:22;3.50;19.10
15105;DHT22;7653;48.994;9.212;2023-02-28T17:21:47;3.50;19.10
15105;DHT22;7653;48.994;9.212;2023-02-28T17:24:13;3.50;19.10
15105;DHT22;7653;48.994;9.212;2023-02-28T17:26:42;3.40;19.00
15105;DHT22;7653;48.994;9.212;2023-02-28T17:29:17;3.40;19.10
15105;DHT22;7653;48.994;9.212;2023-02-28T17:31:43;3.50;19.10
15105;DHT22;7653;48.994;9.212;2023-02-28T17:34:09;3.40;19.30
15105;DHT22;7653;48.994;9.212;2023-02-28T17:36:35;3.30;19.60
15105;DHT22;7653;48.994;9.212;2023-02-28T17:39:04;3.20;19.70
15105;DHT22;7653;48.994;9.212;2023-02-28T17:41:34;3.30;19.90
15105;DHT22;7653;48.994;9.212;2023-02-28T17:44:00;3.20;19.60
15105;DHT22;7653;48.994;9.212;2023-02-28T17:46:25;3.10;20.00
15105;DHT22;7653;48.994;9.212;2023-02-28T17:48:52;3.00;20.50
15105;DHT22;7653;48.994;9.212;2023-02-28T17:51:21;2.80;20.30
15105;DHT22;7653;48.994;9.212;2023-02-28T17:53:47;2.80;21.10
15105;DHT22;7653;48.994;9.212;2023-02-28T17:56:20;2.80;20.70
15105;DHT22;7653;48.994;9.212;2023-02-28T17:58:46;2.60;20.70
15105;DHT22;7653;48.994;9.212;2023-02-28T18:01:12;2.40;21.20
15105;DHT22;7653;48.994;9.212;2023-02-28T18:03:38;2.50;21.10
15105;DHT22;7653;48.994;9.212;2023-02-28T18:06:04;2.80;20.40
15105;DHT22;7653;48.994;9.212;2023-02-28T18:08:31;2.70;20.70
15105;DHT22;7653;48.994;9.212;2023-02-28T18:10:58;2.80;20.90
15105;DHT22;7653;48.994;9.212;2023-02-28T18:13:24;2.80;21.10
15105;DHT22;7653;48.994;9.212;2023-02-28T18:15:50;2.70;21.80
15105;DHT22;7653;48.994;9.212;2023-02-28T18:18:15;2.60;22.80
15105;DHT22;7653;48.994;9.212;2023-02-28T18:20:41;2.70;22.10
15105;DHT22;7653;48.994;9.212;2023-02-28T18:23:07;2.60;22.50
15105;DHT22;7653;48.994;9.212;2023-02-28T18:25:32;2.50;22.50